sensor_id;sensor_type;location;lat;lon;timestamp;pressure;altitude;pressure_sealevel;temperature;humidity
13027;BME280;6580;42.680;23.324;2023-08-24T00:02:11;95339.44;;;24.80;90.74
13027;BME280;6580;42.680;23.324;2023-08-24T00:04:58;95329.75;;;24.73;93.82
13027;BME280;6580;42.680;23.324;2023-08-24T00:07:45;95334.94;;;24.74;94.67
13027;BME280;6580;42.680;23.324;2023-08-24T00:10:32;95347.38;;;24.70;95.02
13027;BME280;6580;42.680;23.324;2023-08-24T00:13:17;95339.16;;;24.43;98.30
13027;BME280;6580;42.680;23.324;2023-08-24T00:16:09;95331.13;;;24.36;100.00
13027;BME280;6580;42.680;23.324;2023-08-24T00:18:55;95333.44;;;24.44;100.00
13027;BME280;6580;42.680;23.324;2023-08-24T00:21:41;95326.59;;;24.42;100.00
13027;BME280;6580;42.680;23.324;2023-08-24T00:24:26;95331.13;;;24.36;100.00
13027;BME280;6580;42.680;23.324;2023-08-24T00:27:12;95322.44;;;24.39;99.60
13027;BME280;6580;42.680;23.324;2023-08-24T00:29:58;95304.66;;;23.97;100.00
13027;BME280;6580;42.680;23.324;2023-08-24T00:32:45;95326.41;;;23.97;100.00
13027;BME280;6580;42.680;23.324;2023-08-24T00:35:31;95329.75;;;23.99;100.00
13027;BME280;6580;42.680;23.324;2023-08-24T00:38:17;95333.97;;;24.18;100.00
13027;BME280;6580;42.680;23.324;2023-08-24T00:41:03;95331.84;;;24.20;100.00
13027;BME280;6580;42.680;23.324;2023-08-24T00:43:49;95325.56;;;24.20;100.00
13027;BME280;6580;42.680;23.324;2023-08-24T00:46:34;95327.81;;;24.11;100.00
13027;BME280;6580;42.680;23.324;2023-08-24T00:49:23;95338.72;;;24.11;100.00
13027;BME280;6580;42.680;23.324;2023-08-24T00:52:08;95339.66;;;24.05;100.00
13027;BME280;6580;42.680;23.324;2023-08-24T00:54:55;95330.22;;;24.08;100.00
13027;BME280;6580;42.680;23.324;2023-08-24T00:57:40;95327.09;;;24.16;100.00
13027;BME280;6580;42.680;23.324;2023-08-24T01:00:27;95338.84;;;24.05;100.00
13027;BME280;6580;42.680;23.324;2023-08-24T01:03:13;95338.81;;;24.28;100.00
13027;BME280;6580;42.680;23.324;2023-08-24T01:06:00;95336.19;;;24.33;100.00
13027;BME280;6580;42.680;23.324;2023-08-24T01:08:46;95334.09;;;24.12;100.00
13027;BME280;6580;42.680;23.324;2023-08-24T01:11:45;95332.78;;;24.26;100.00
13027;BME280;6580;42.680;23.324;2023-08-24T01:14:41;95325.22;;;24.05;100.00
13027;BME280;6580;42.680;23.324;2023-08-24T01:17:30;95322.84;;;23.97;100.00
13027;BME280;6580;42.680;23.324;2023-08-24T01:20:17;95324.16;;;24.06;100.00
13027;BME280;6580;42.680;23.324;2023-08-24T01:23:15;95324.28;;;23.99;100.00
13027;BME280;6580;42.680;23.324;2023-08-24T01:26:09;95330.44;;;23.83;100.00
13027;BME280;6580;42.680;23.324;2023-08-24T01:28:55;95327.13;;;23.81;100.00
13027;BME280;6580;42.680;23.324;2023-08-24T01:31:44;95334.41;;;23.69;100.00
13027;BME280;6580;42.680;23.324;2023-08-24T01:34:29;95349.28;;;23.44;100.00
13027;BME280;6580;42.680;23.324;2023-08-24T01:37:17;95342.75;;;23.86;100.00
13027;BME280;6580;42.680;23.324;2023-08-24T01:40:05;95337.84;;;23.76;100.00
13027;BME280;6580;42.680;23.324;2023-08-24T01:42:58;95342.19;;;23.55;100.00
13027;BME280;6580;42.680;23.324;2023-08-24T01:45:44;95336.66;;;23.61;100.00
13027;BME280;6580;42.680;23.324;2023-08-24T01:48:31;95333.25;;;23.65;100.00
13027;BME280;6580;42.680;23.324;2023-08-24T01:51:17;95344.09;;;23.43;100.00
13027;BME280;6580;42.680;23.324;2023-08-24T01:54:03;95345.75;;;23.55;100.00
13027;BME280;6580;42.680;23.324;2023-08-24T01:56:49;95336.75;;;23.55;100.00
13027;BME280;6580;42.680;23.324;2023-08-24T01:59:37;95340.69;;;23.70;100.00
13027;BME280;6580;42.680;23.324;2023-08-24T02:02:24;95340.53;;;23.54;100.00
13027;BME280;6580;42.680;23.324;2023-08-24T02:05:09;95346.91;;;23.48;100.00
13027;BME280;6580;42.680;23.324;2023-08-24T02:07:55;95346.91;;;23.48;100.00
13027;BME280;6580;42.680;23.324;2023-08-24T02:10:42;95338.16;;;23.34;100.00
13027;BME280;6580;42.680;23.324;2023-08-24T02:13:28;95338.41;;;23.56;100.00
13027;BME280;6580;42.680;23.324;2023-08-24T02:16:15;95344.91;;;23.43;100.00
13027;BME280;6580;42.680;23.324;2023-08-24T02:19:01;95349.09;;;23.16;100.00
13027;BME280;6580;42.680;23.324;2023-08-24T02:21:47;95347.44;;;23.15;100.00
13027;BME280;6580;42.680;23.324;2023-08-24T02:24:33;95339.19;;;23.22;100.00
13027;BME280;6580;42.680;23.324;2023-08-24T02:27:19;95357.75;;;23.25;100.00
13027;BME280;6580;42.680;23.324;2023-08-24T02:30:06;95356.53;;;23.21;100.00
13027;BME280;6580;42.680;23.324;2023-08-24T02:32:56;95354.63;;;23.10;100.00
13027;BME280;6580;42.680;23.324;2023-08-24T02:35:41;95361.03;;;22.97;100.00
13027;BME280;6580;42.680;23.324;2023-08-24T02:38:28;95346.84;;;22.95;100.00
13027;BME280;6580;42.680;23.324;2023-08-24T02:41:16;95345.09;;;23.01;100.00
13027;BME280;6580;42.680;23.324;2023-08-24T02:44:03;95346.59;;;23.15;100.00
13027;BME280;6580;42.680;23.324;2023-08-24T02:46:48;95335.25;;;23.18;100.00
13027;BME280;6580;42.680;23.324;2023-08-24T02:49:38;95335.00;;;23.08;100.00
13027;BME280;6580;42.680;23.324;2023-08-24T02:52:24;95329.72;;;22.95;100.00
13027;BME280;6580;42.680;23.324;2023-08-24T02:55:10;95327.53;;;22.74;100.00
13027;BME280;6580;42.680;23.324;2023-08-24T02:57:55;95337.28;;;22.63;100.00
13027;BME280;6580;42.680;23.324;2023-08-24T03:00:42;95341.78;;;22.99;100.00
13027;BME280;6580;42.680;23.324;2023-08-24T03:03:27;95339.88;;;23.17;100.00
13027;BME280;6580;42.680;23.324;2023-08-24T03:06:15;95338.09;;;23.11;100.00
13027;BME280;6580;42.680;23.324;2023-08-24T03:09:02;95340.59;;;22.95;100.00
13027;BME280;6580;42.680;23.324;2023-08-24T03:11:50;95346.00;;;22.95;100.00
13027;BME280;6580;42.680;23.324;2023-08-24T03:14:36;95341.78;;;22.99;100.00
13027;BME280;6580;42.680;23.324;2023-08-24T03:17:21;95353.00;;;23.02;100.00
13027;BME280;6580;42.680;23.324;2023-08-24T03:20:08;95340.66;;;23.06;100.00
13027;BME280;6580;42.680;23.324;2023-08-24T03:22:57;95349.66;;;23.07;100.00
13027;BME280;6580;42.680;23.324;2023-08-24T03:25:43;95352.78;;;23.04;100.00
13027;BME280;6580;42.680;23.324;2023-08-24T03:28:29;95362.72;;;22.98;100.00
13027;BME280;6580;42.680;23.324;2023-08-24T03:31:14;95370.56;;;22.88;100.00
13027;BME280;6580;42.680;23.324;2023-08-24T03:33:59;95374.22;;;22.82;100.00
13027;BME280;6580;42.680;23.324;2023-08-24T03:36:45;95365.13;;;22.88;100.00
13027;BME280;6580;42.680;23.324;2023-08-24T03:39:33;95377.91;;;22.88;100.00
13027;BME280;6580;42.680;23.324;2023-08-24T03:42:18;95379.16;;;22.85;100.00
13027;BME280;6580;42.680;23.324;2023-08-24T03:45:05;95392.22;;;22.77;100.00
13027;BME280;6580;42.680;23.324;2023-08-24T03:47:52;95396.91;;;22.88;100.00
13027;BME280;6580;42.680;23.324;2023-08-24T03:50:37;95402.28;;;22.76;100.00
13027;BME280;6580;42.680;23.324;2023-08-24T03:53:23;95392.72;;;22.74;100.00
13027;BME280;6580;42.680;23.324;2023-08-24T03:56:13;95398.28;;;22.61;100.00
13027;BME280;6580;42.680;23.324;2023-08-24T03:59:01;95398.88;;;22.45;100.00
13027;BME280;6580;42.680;23.324;2023-08-24T04:01:47;95396.09;;;22.69;100.00
13027;BME280;6580;42.680;23.324;2023-08-24T04:04:34;95395.28;;;22.69;100.00
13027;BME280;6580;42.680;23.324;2023-08-24T04:07:21;95397.59;;;22.48;100.00
13027;BME280;6580;42.680;23.324;2023-08-24T04:10:08;95394.97;;;22.41;100.00
13027;BME280;6580;42.680;23.324;2023-08-24T04:12:55;95391.88;;;22.56;100.00
13027;BME280;6580;42.680;23.324;2023-08-24T04:15:42;95397.47;;;22.43;100.00
13027;BME280;6580;42.680;23.324;2023-08-24T04:18:28;95389.41;;;22.36;100.00
13027;BME280;6580;42.680;23.324;2023-08-24T04:21:15;95388.34;;;22.55;100.00
13027;BME280;6580;42.680;23.324;2023-08-24T04:24:01;95388.63;;;22.65;100.00
13027;BME280;6580;42.680;23.324;2023-08-24T04:26:47;95371.56;;;22.58;100.00
13027;BME280;6580;42.680;23.324;2023-08-24T04:29:38;95391.06;;;22.73;100.00
13027;BME280;6580;42.680;23.324;2023-08-24T04:32:28;95404.91;;;22.65;100.00
13027;BME280;6580;42.680;23.324;2023-08-24T04:35:14;95395.56;;;22.61;100.00
13027;BME280;6580;42.680;23.324;2023-08-24T04:38:01;95397.38;;;22.85;100.00
13027;BME280;6580;42.680;23.324;2023-08-24T04:40:51;95400.44;;;23.06;100.00
13027;BME280;6580;42.680;23.324;2023-08-24T04:43:37;95401.88;;;23.09;100.00
13027;BME280;6580;42.680;23.324;2023-08-24T04:46:24;95404.28;;;22.99;100.00
13027;BME280;6580;42.680;23.324;2023-08-24T04:49:10;95396.50;;;22.84;100.00
13027;BME280;6580;42.680;23.324;2023-08-24T04:51:55;95392.69;;;23.21;100.00
13027;BME280;6580;42.680;23.324;2023-08-24T04:54:40;95392.94;;;23.02;100.00
13027;BME280;6580;42.680;23.324;2023-08-24T04:57:26;95385.25;;;22.99;100.00
13027;BME280;6580;42.680;23.324;2023-08-24T05:00:12;95404.00;;;23.07;100.00
13027;BME280;6580;42.680;23.324;2023-08-24T05:03:02;95410.16;;;23.14;100.00
13027;BME280;6580;42.680;23.324;2023-08-24T05:05:48;95399.22;;;23.32;100.00
13027;BME280;6580;42.680;23.324;2023-08-24T05:08:33;95409.50;;;23.30;100.00
13027;BME280;6580;42.680;23.324;2023-08-24T05:11:22;95403.91;;;23.43;100.00
13027;BME280;6580;42.680;23.324;2023-08-24T05:14:09;95405.41;;;23.39;100.00
13027;BME280;6580;42.680;23.324;2023-08-24T05:16:55;95413.03;;;23.60;100.00
13027;BME280;6580;42.680;23.324;2023-08-24T05:19:41;95409.16;;;23.67;100.00
13027;BME280;6580;42.680;23.324;2023-08-24T05:22:27;95398.72;;;23.53;100.00
13027;BME280;6580;42.680;23.324;2023-08-24T05:25:13;95419.44;;;23.65;100.00
13027;BME280;6580;42.680;23.324;2023-08-24T05:28:02;95415.84;;;23.82;100.00
13027;BME280;6580;42.680;23.324;2023-08-24T05:30:48;95422.47;;;23.57;100.00
13027;BME280;6580;42.680;23.324;2023-08-24T05:33:36;95416.41;;;23.84;100.00
13027;BME280;6580;42.680;23.324;2023-08-24T05:36:23;95423.09;;;23.70;100.00
13027;BME280;6580;42.680;23.324;2023-08-24T05:39:09;95423.97;;;23.71;100.00
13027;BME280;6580;42.680;23.324;2023-08-24T05:41:55;95416.84;;;23.70;100.00
13027;BME280;6580;42.680;23.324;2023-08-24T05:44:40;95423.22;;;24.05;100.00
13027;BME280;6580;42.680;23.324;2023-08-24T05:47:26;95423.31;;;23.98;100.00
13027;BME280;6580;42.680;23.324;2023-08-24T05:50:11;95424.84;;;23.94;100.00
13027;BME280;6580;42.680;23.324;2023-08-24T05:52:58;95428.53;;;24.34;99.62
13027;BME280;6580;42.680;23.324;2023-08-24T05:55:44;95433.16;;;24.45;98.66
13027;BME280;6580;42.680;23.324;2023-08-24T05:58:29;95442.41;;;24.67;98.42
13027;BME280;6580;42.680;23.324;2023-08-24T06:01:14;95439.03;;;25.94;89.12
13027;BME280;6580;42.680;23.324;2023-08-24T06:04:00;95435.84;;;27.49;76.76
13027;BME280;6580;42.680;23.324;2023-08-24T06:06:45;95410.06;;;28.24;70.71
13027;BME280;6580;42.680;23.324;2023-08-24T06:09:33;95429.19;;;28.50;68.12
13027;BME280;6580;42.680;23.324;2023-08-24T06:12:20;95420.59;;;28.78;65.99
13027;BME280;6580;42.680;23.324;2023-08-24T06:15:06;95412.94;;;28.75;64.86
13027;BME280;6580;42.680;23.324;2023-08-24T06:17:54;95415.78;;;28.95;62.89
13027;BME280;6580;42.680;23.324;2023-08-24T06:20:40;95419.44;;;29.77;59.71
13027;BME280;6580;42.680;23.324;2023-08-24T06:23:26;95414.34;;;29.39;62.35
13027;BME280;6580;42.680;23.324;2023-08-24T06:26:13;95424.06;;;29.66;60.36
13027;BME280;6580;42.680;23.324;2023-08-24T06:28:58;95416.66;;;29.72;58.32
13027;BME280;6580;42.680;23.324;2023-08-24T06:31:45;95406.22;;;29.69;57.59
13027;BME280;6580;42.680;23.324;2023-08-24T06:34:30;95421.47;;;30.11;56.98
13027;BME280;6580;42.680;23.324;2023-08-24T06:37:16;95419.44;;;31.16;53.02
13027;BME280;6580;42.680;23.324;2023-08-24T06:40:04;95425.06;;;31.59;50.29
13027;BME280;6580;42.680;23.324;2023-08-24T06:42:52;95424.72;;;30.93;52.16
13027;BME280;6580;42.680;23.324;2023-08-24T06:45:39;95422.63;;;32.11;48.65
13027;BME280;6580;42.680;23.324;2023-08-24T06:48:26;95409.09;;;32.48;47.66
13027;BME280;6580;42.680;23.324;2023-08-24T06:51:12;95418.16;;;32.48;46.88
13027;BME280;6580;42.680;23.324;2023-08-24T06:53:59;95417.44;;;33.28;44.85
13027;BME280;6580;42.680;23.324;2023-08-24T06:56:44;95412.69;;;33.52;44.05
13027;BME280;6580;42.680;23.324;2023-08-24T06:59:31;95408.91;;;33.90;41.94
13027;BME280;6580;42.680;23.324;2023-08-24T07:02:17;95404.78;;;33.87;42.27
13027;BME280;6580;42.680;23.324;2023-08-24T07:05:03;95405.38;;;33.84;42.23
13027;BME280;6580;42.680;23.324;2023-08-24T07:07:53;95398.84;;;34.17;40.79
13027;BME280;6580;42.680;23.324;2023-08-24T07:10:39;95394.44;;;32.81;43.85
13027;BME280;6580;42.680;23.324;2023-08-24T07:13:24;95400.38;;;31.88;46.23
13027;BME280;6580;42.680;23.324;2023-08-24T07:16:15;95396.63;;;31.06;48.45
13027;BME280;6580;42.680;23.324;2023-08-24T07:19:00;95401.31;;;31.00;48.69
13027;BME280;6580;42.680;23.324;2023-08-24T07:21:49;95400.84;;;30.58;50.64
13027;BME280;6580;42.680;23.324;2023-08-24T07:24:35;95406.84;;;30.90;51.25
13027;BME280;6580;42.680;23.324;2023-08-24T07:27:20;95395.75;;;31.78;48.61
13027;BME280;6580;42.680;23.324;2023-08-24T07:30:07;95390.63;;;33.28;44.00
13027;BME280;6580;42.680;23.324;2023-08-24T07:32:56;95398.16;;;33.23;43.14
13027;BME280;6580;42.680;23.324;2023-08-24T07:35:45;95392.88;;;32.70;44.14
13027;BME280;6580;42.680;23.324;2023-08-24T07:38:37;95386.59;;;32.59;43.75
13027;BME280;6580;42.680;23.324;2023-08-24T07:41:24;95378.47;;;33.29;42.66
13027;BME280;6580;42.680;23.324;2023-08-24T07:44:10;95386.72;;;33.06;42.35
13027;BME280;6580;42.680;23.324;2023-08-24T07:46:56;95392.31;;;34.08;40.39
13027;BME280;6580;42.680;23.324;2023-08-24T07:49:44;95388.56;;;34.86;38.96
13027;BME280;6580;42.680;23.324;2023-08-24T07:52:31;95380.91;;;36.04;37.10
13027;BME280;6580;42.680;23.324;2023-08-24T07:55:18;95380.25;;;37.08;34.95
13027;BME280;6580;42.680;23.324;2023-08-24T07:58:04;95376.47;;;36.39;34.79
13027;BME280;6580;42.680;23.324;2023-08-24T08:00:50;95371.53;;;36.00;35.85
13027;BME280;6580;42.680;23.324;2023-08-24T08:03:37;95364.72;;;36.85;34.32
13027;BME280;6580;42.680;23.324;2023-08-24T08:06:27;95378.47;;;37.51;32.86
13027;BME280;6580;42.680;23.324;2023-08-24T08:09:15;95367.81;;;37.83;32.26
13027;BME280;6580;42.680;23.324;2023-08-24T08:12:10;95368.97;;;38.08;31.69
13027;BME280;6580;42.680;23.324;2023-08-24T08:14:55;95366.91;;;38.39;31.05
13027;BME280;6580;42.680;23.324;2023-08-24T08:17:41;95373.44;;;38.60;30.79
13027;BME280;6580;42.680;23.324;2023-08-24T08:20:28;95366.81;;;39.06;29.97
13027;BME280;6580;42.680;23.324;2023-08-24T08:23:15;95363.41;;;39.47;29.43
13027;BME280;6580;42.680;23.324;2023-08-24T08:26:00;95365.25;;;39.80;29.02
13027;BME280;6580;42.680;23.324;2023-08-24T08:28:46;95370.16;;;39.83;28.78
13027;BME280;6580;42.680;23.324;2023-08-24T08:31:33;95351.88;;;40.14;28.42
13027;BME280;6580;42.680;23.324;2023-08-24T08:34:19;95354.19;;;40.41;27.88
13027;BME280;6580;42.680;23.324;2023-08-24T08:37:05;95347.88;;;40.65;27.72
13027;BME280;6580;42.680;23.324;2023-08-24T08:39:55;95353.28;;;41.02;26.91
13027;BME280;6580;42.680;23.324;2023-08-24T08:42:41;95339.56;;;40.56;27.35
13027;BME280;6580;42.680;23.324;2023-08-24T08:45:28;95340.25;;;40.74;27.26
13027;BME280;6580;42.680;23.324;2023-08-24T08:48:16;95343.81;;;40.62;26.70
13027;BME280;6580;42.680;23.324;2023-08-24T08:51:03;95339.84;;;40.95;26.97
13027;BME280;6580;42.680;23.324;2023-08-24T08:53:52;95335.63;;;40.57;27.07
13027;BME280;6580;42.680;23.324;2023-08-24T08:56:44;95335.81;;;39.62;28.02
13027;BME280;6580;42.680;23.324;2023-08-24T08:59:31;95328.94;;;39.14;28.76
13027;BME280;6580;42.680;23.324;2023-08-24T09:02:19;95321.81;;;38.79;29.45
13027;BME280;6580;42.680;23.324;2023-08-24T09:05:07;95309.81;;;39.70;28.97
13027;BME280;6580;42.680;23.324;2023-08-24T09:07:54;95315.28;;;40.69;27.83
13027;BME280;6580;42.680;23.324;2023-08-24T09:10:41;95310.09;;;39.77;27.96
13027;BME280;6580;42.680;23.324;2023-08-24T09:13:30;95303.75;;;39.97;28.82
13027;BME280;6580;42.680;23.324;2023-08-24T09:16:17;95299.66;;;40.56;27.53
13027;BME280;6580;42.680;23.324;2023-08-24T09:19:05;95294.97;;;41.36;26.63
13027;BME280;6580;42.680;23.324;2023-08-24T09:21:56;95289.59;;;41.19;26.52
13027;BME280;6580;42.680;23.324;2023-08-24T09:24:42;95282.94;;;41.96;25.66
13027;BME280;6580;42.680;23.324;2023-08-24T09:27:27;95276.66;;;41.99;25.76
13027;BME280;6580;42.680;23.324;2023-08-24T09:30:14;95275.22;;;42.83;24.79
13027;BME280;6580;42.680;23.324;2023-08-24T09:33:03;95268.88;;;41.68;25.41
13027;BME280;6580;42.680;23.324;2023-08-24T09:35:53;95273.97;;;41.54;25.80
13027;BME280;6580;42.680;23.324;2023-08-24T09:38:45;95259.78;;;41.71;24.93
13027;BME280;6580;42.680;23.324;2023-08-24T09:41:39;95267.84;;;41.73;25.35
13027;BME280;6580;42.680;23.324;2023-08-24T09:44:24;95244.00;;;42.03;24.88
13027;BME280;6580;42.680;23.324;2023-08-24T09:47:13;95257.34;;;41.22;25.75
13027;BME280;6580;42.680;23.324;2023-08-24T09:50:00;95247.25;;;42.05;23.99
13027;BME280;6580;42.680;23.324;2023-08-24T09:52:47;95249.81;;;42.92;23.40
13027;BME280;6580;42.680;23.324;2023-08-24T09:55:36;95249.25;;;42.59;23.43
13027;BME280;6580;42.680;23.324;2023-08-24T09:58:25;95242.47;;;43.03;22.85
13027;BME280;6580;42.680;23.324;2023-08-24T10:01:12;95244.84;;;42.30;23.61
13027;BME280;6580;42.680;23.324;2023-08-24T10:04:01;95241.19;;;42.30;24.03
13027;BME280;6580;42.680;23.324;2023-08-24T10:06:53;95241.44;;;42.64;23.73
13027;BME280;6580;42.680;23.324;2023-08-24T10:09:45;95229.53;;;42.83;23.57
13027;BME280;6580;42.680;23.324;2023-08-24T10:12:38;95238.78;;;42.56;23.56
13027;BME280;6580;42.680;23.324;2023-08-24T10:15:26;95231.66;;;43.17;23.56
13027;BME280;6580;42.680;23.324;2023-08-24T10:18:13;95222.41;;;43.01;22.57
13027;BME280;6580;42.680;23.324;2023-08-24T10:21:03;95223.22;;;42.86;22.99
13027;BME280;6580;42.680;23.324;2023-08-24T10:23:50;95216.69;;;42.97;22.57
13027;BME280;6580;42.680;23.324;2023-08-24T10:26:40;95215.03;;;43.73;21.50
13027;BME280;6580;42.680;23.324;2023-08-24T10:29:27;95221.25;;;43.17;22.28
13027;BME280;6580;42.680;23.324;2023-08-24T10:32:13;95216.91;;;43.19;22.22
13027;BME280;6580;42.680;23.324;2023-08-24T10:35:02;95207.25;;;42.04;23.64
13027;BME280;6580;42.680;23.324;2023-08-24T10:37:52;95206.41;;;42.31;23.20
13027;BME280;6580;42.680;23.324;2023-08-24T10:40:40;95204.03;;;41.54;23.94
13027;BME280;6580;42.680;23.324;2023-08-24T10:43:29;95201.53;;;40.57;24.11
13027;BME280;6580;42.680;23.324;2023-08-24T10:46:15;95202.16;;;39.69;25.33
13027;BME280;6580;42.680;23.324;2023-08-24T10:49:04;95204.50;;;39.09;26.49
13027;BME280;6580;42.680;23.324;2023-08-24T10:51:51;95212.34;;;38.78;27.23
13027;BME280;6580;42.680;23.324;2023-08-24T10:54:43;95211.69;;;38.10;27.56
13027;BME280;6580;42.680;23.324;2023-08-24T10:57:38;95204.09;;;37.35;28.52
13027;BME280;6580;42.680;23.324;2023-08-24T11:00:27;95205.25;;;36.86;30.07
13027;BME280;6580;42.680;23.324;2023-08-24T11:03:30;95215.03;;;36.15;32.06
13027;BME280;6580;42.680;23.324;2023-08-24T11:06:21;95216.22;;;34.49;34.29
13027;BME280;6580;42.680;23.324;2023-08-24T11:09:09;95209.50;;;34.10;35.61
13027;BME280;6580;42.680;23.324;2023-08-24T11:12:06;95205.19;;;34.62;35.93
13027;BME280;6580;42.680;23.324;2023-08-24T11:14:54;95200.59;;;34.85;34.39
13027;BME280;6580;42.680;23.324;2023-08-24T11:17:42;95209.75;;;35.34;32.87
13027;BME280;6580;42.680;23.324;2023-08-24T11:20:42;95181.06;;;35.03;33.98
13027;BME280;6580;42.680;23.324;2023-08-24T11:23:30;95205.88;;;34.41;35.19
13027;BME280;6580;42.680;23.324;2023-08-24T11:26:16;95204.69;;;35.01;34.27
13027;BME280;6580;42.680;23.324;2023-08-24T11:29:06;95208.34;;;34.96;34.60
13027;BME280;6580;42.680;23.324;2023-08-24T11:31:51;95205.28;;;34.57;34.97
13027;BME280;6580;42.680;23.324;2023-08-24T11:34:36;95202.13;;;34.77;34.57
13027;BME280;6580;42.680;23.324;2023-08-24T11:37:22;95212.34;;;34.05;35.03
13027;BME280;6580;42.680;23.324;2023-08-24T11:40:16;95225.09;;;33.87;36.27
13027;BME280;6580;42.680;23.324;2023-08-24T11:43:03;95206.28;;;34.35;35.73
13027;BME280;6580;42.680;23.324;2023-08-24T11:45:51;95211.91;;;34.30;35.77
13027;BME280;6580;42.680;23.324;2023-08-24T11:48:37;95209.59;;;34.37;35.96
13027;BME280;6580;42.680;23.324;2023-08-24T11:51:24;95202.13;;;34.05;35.92
13027;BME280;6580;42.680;23.324;2023-08-24T11:54:11;95219.53;;;33.74;36.62
13027;BME280;6580;42.680;23.324;2023-08-24T11:56:59;95208.25;;;33.52;38.00
13027;BME280;6580;42.680;23.324;2023-08-24T11:59:44;95205.78;;;33.50;37.61
13027;BME280;6580;42.680;23.324;2023-08-24T12:02:34;95209.16;;;33.29;38.19
13027;BME280;6580;42.680;23.324;2023-08-24T12:05:24;95201.81;;;33.01;39.22
13027;BME280;6580;42.680;23.324;2023-08-24T12:08:12;95187.34;;;33.09;39.13
13027;BME280;6580;42.680;23.324;2023-08-24T12:11:02;95183.22;;;33.07;39.29
13027;BME280;6580;42.680;23.324;2023-08-24T12:13:49;95176.34;;;32.86;40.74
13027;BME280;6580;42.680;23.324;2023-08-24T12:16:36;95171.13;;;32.66;41.10
13027;BME280;6580;42.680;23.324;2023-08-24T12:19:23;95171.97;;;32.85;40.97
13027;BME280;6580;42.680;23.324;2023-08-24T12:22:12;95170.16;;;32.75;40.73
13027;BME280;6580;42.680;23.324;2023-08-24T12:24:58;95166.34;;;32.90;39.85
13027;BME280;6580;42.680;23.324;2023-08-24T12:27:44;95173.91;;;33.03;39.33
13027;BME280;6580;42.680;23.324;2023-08-24T12:30:30;95183.91;;;32.99;39.36
13027;BME280;6580;42.680;23.324;2023-08-24T12:33:22;95182.22;;;33.21;38.59
13027;BME280;6580;42.680;23.324;2023-08-24T12:36:10;95181.69;;;33.19;38.48
13027;BME280;6580;42.680;23.324;2023-08-24T12:38:57;95189.41;;;33.54;37.97
13027;BME280;6580;42.680;23.324;2023-08-24T12:41:43;95187.19;;;33.56;37.52
13027;BME280;6580;42.680;23.324;2023-08-24T12:44:29;95187.47;;;33.73;36.69
13027;BME280;6580;42.680;23.324;2023-08-24T12:47:15;95183.69;;;33.50;36.82
13027;BME280;6580;42.680;23.324;2023-08-24T12:50:01;95185.44;;;33.78;36.72
13027;BME280;6580;42.680;23.324;2023-08-24T12:52:49;95179.63;;;33.61;36.53
13027;BME280;6580;42.680;23.324;2023-08-24T12:55:44;95191.16;;;33.68;37.03
13027;BME280;6580;42.680;23.324;2023-08-24T12:58:30;95203.84;;;33.51;36.66
13027;BME280;6580;42.680;23.324;2023-08-24T13:01:16;95198.41;;;33.46;37.09
13027;BME280;6580;42.680;23.324;2023-08-24T13:04:01;95218.63;;;33.41;38.75
13027;BME280;6580;42.680;23.324;2023-08-24T13:06:46;95215.53;;;33.06;41.93
13027;BME280;6580;42.680;23.324;2023-08-24T13:09:36;95208.50;;;32.95;43.24
13027;BME280;6580;42.680;23.324;2023-08-24T13:12:32;95214.31;;;32.75;45.11
13027;BME280;6580;42.680;23.324;2023-08-24T13:15:18;95223.03;;;32.59;44.45
13027;BME280;6580;42.680;23.324;2023-08-24T13:18:05;95217.38;;;32.22;44.96
13027;BME280;6580;42.680;23.324;2023-08-24T13:20:50;95219.97;;;32.37;44.62
13027;BME280;6580;42.680;23.324;2023-08-24T13:23:36;95217.16;;;32.42;44.16
13027;BME280;6580;42.680;23.324;2023-08-24T13:26:29;95216.66;;;32.63;44.13
13027;BME280;6580;42.680;23.324;2023-08-24T13:29:15;95209.38;;;32.72;43.09
13027;BME280;6580;42.680;23.324;2023-08-24T13:32:04;95203.13;;;32.85;43.19
13027;BME280;6580;42.680;23.324;2023-08-24T13:34:51;95205.25;;;32.93;42.75
13027;BME280;6580;42.680;23.324;2023-08-24T13:37:37;95204.19;;;33.08;42.60
13027;BME280;6580;42.680;23.324;2023-08-24T13:40:24;95195.06;;;33.12;42.52
13027;BME280;6580;42.680;23.324;2023-08-24T13:43:11;95208.91;;;33.07;43.01
13027;BME280;6580;42.680;23.324;2023-08-24T13:45:57;95200.28;;;33.14;43.48
13027;BME280;6580;42.680;23.324;2023-08-24T13:48:43;95211.31;;;33.32;43.48
13027;BME280;6580;42.680;23.324;2023-08-24T13:51:29;95216.19;;;32.98;44.23
13027;BME280;6580;42.680;23.324;2023-08-24T13:54:16;95221.78;;;33.17;44.38
13027;BME280;6580;42.680;23.324;2023-08-24T13:57:02;95221.00;;;33.11;43.87
13027;BME280;6580;42.680;23.324;2023-08-24T13:59:52;95209.47;;;32.86;43.19
13027;BME280;6580;42.680;23.324;2023-08-24T14:02:42;95222.06;;;32.73;43.91
13027;BME280;6580;42.680;23.324;2023-08-24T14:05:28;95217.75;;;32.62;44.22
13027;BME280;6580;42.680;23.324;2023-08-24T14:08:14;95217.44;;;32.40;44.54
13027;BME280;6580;42.680;23.324;2023-08-24T14:11:00;95204.66;;;32.73;44.26
13027;BME280;6580;42.680;23.324;2023-08-24T14:13:46;95203.72;;;32.82;44.43
13027;BME280;6580;42.680;23.324;2023-08-24T14:16:33;95206.38;;;32.69;45.51
13027;BME280;6580;42.680;23.324;2023-08-24T14:19:19;95206.72;;;32.62;44.07
13027;BME280;6580;42.680;23.324;2023-08-24T14:22:04;95199.50;;;32.66;44.11
13027;BME280;6580;42.680;23.324;2023-08-24T14:24:50;95195.28;;;32.50;44.05
13027;BME280;6580;42.680;23.324;2023-08-24T14:27:36;95191.72;;;32.73;43.63
13027;BME280;6580;42.680;23.324;2023-08-24T14:30:23;95188.22;;;32.86;42.71
13027;BME280;6580;42.680;23.324;2023-08-24T14:33:09;95203.59;;;32.92;41.90
13027;BME280;6580;42.680;23.324;2023-08-24T14:35:55;95204.31;;;33.21;41.56
13027;BME280;6580;42.680;23.324;2023-08-24T14:38:42;95195.81;;;33.18;41.89
13027;BME280;6580;42.680;23.324;2023-08-24T14:41:27;95196.28;;;33.01;42.62